Share

Kinney, MN (55758)

5:46 AM CDT on April 24, 2014 (GMT -0500)
RAWS HIBBING MN US (MHIBM5) Elev 1350 ft | 47.39 °N, 92.83 °W | Change Station
Active Advisory: Winter Weather Advisory

Current weather conditions updated 39 minutes ago

Overcast
Overcast
35 °F
Feels Like 27 °F
N
10
Wind Variable Wind from East
Gusts 14.0 mph
Sunrise 6:05 AM
Sunset 8:13 PM
Moon Waning Crescent

Today is forecast to be Much Cooler than yesterday. Mix of rain and snow.

Pressure 29.96 in
Visibility 10.0 miles
Clouds Overcast 500 ft
Windchill 27 °F
Dew Point 34 °F
Humidity 97%
Rainfall 0.22 in
Snow Depth Not available.
UV 0 out of 16
Pollen 9.80 out of 12
Air Quality Not available.
Flu Activity Sporadic
METAR KHIB 240953Z AUTO 11008KT 10SM OVC005 02/01 A2992 RMK AO2 RAE09 CIG 004V010 SLP144 P0001 T00220006

More Conditions Fewer Conditions

Pressure 29.96 in
Visibility 10.0 miles
Clouds Overcast 500 ft
Windchill 27 °F
Dew Point 34 °F
Humidity 97%
Rainfall 0.22 in
Snow Depth Not available.
UV 0 out of 16
Pollen 9.80 out of 12
Air Quality Not available.
Flu Activity Sporadic
METAR KHIB 240953Z AUTO 11008KT 10SM OVC005 02/01 A2992 RMK AO2 RAE09 CIG 004V010 SLP144 P0001 T00220006

More Conditions Fewer Conditions

10-Day Weather Forecast

Almanac

Astronomy

Apr. 24, 2014 Rise Set
Actual Time 6:05 AM CDT 8:13 PM CDT
Civil Twilight 5:32 AM CDT 8:46 PM CDT
Nautical Twilight 4:51 AM CDT 9:28 PM CDT
Astronomical Twilight 4:05 AM CDT 10:14 PM CDT
Moon 3:38 AM CDT 3:09 PM CDT
Length of Visible Light 15h 14m
Length of Day
14h 07m
Tomorrow will be 3m 9s longer.
Waning Crescent, 27% of the Moon is Illuminated
Today
Waning Crescent
Apr 29
New
May 6
First Quarter
May 14
Full
May 21
Last Quarter

Today's Extremes

State Highs State Lows

Community

  • Stacked
    Stacked
  • clouds approaching Red Sox Nation
    clouds approaching Red Sox Nation
  • Balance
    Balance
  • Nestled In
    Nestled In
  • Stunning Sunrise
    Stunning Sunrise

WunderPhotos

Upload Photos

1,704,584 photos uploaded!

WunderBlogs® & News

Nearby

Snow Depth

Station Depth Elevation
No new snow has been reported.

Coastal Water Temperatures

Place Temperature
No Stations Reporting

Earthquake Activity

City Distance Mag. Time & Date
No recent earthquake activity has been reported nearby.
Minimum magnitude displayed is 2.5.

Nearby Weather Stations

Station Location Temp. Windchill Dew Point Humidity Wind Precip. Elev Updated Type
RAWS HIBBING MN, Hibbing, MN 35 °F 27 °F 34 °F 97% East  at  10 mph 0.05 in / hr 1350 ft 5:07 AM CDT MADIS

Show More Stations Show Fewer Stations

What do you think?

We're not finished. Please let us know what you like, what you don't like, and what you are still missing.